sensor_id;sensor_type;location;lat;lon;timestamp;P1;durP1;ratioP1;P2;durP2;ratioP2
37355;SDS011;48747;50.250;18.848;2023-05-19T00:03:14;15.85;;;9.55;;
37355;SDS011;48747;50.250;18.848;2023-05-19T00:07:15;16.00;;;9.18;;
37355;SDS011;48747;50.250;18.848;2023-05-19T00:09:25;15.43;;;10.28;;
37355;SDS011;48747;50.250;18.848;2023-05-19T00:11:28;15.83;;;8.85;;
37355;SDS011;48747;50.250;18.848;2023-05-19T00:15:55;15.70;;;8.23;;
37355;SDS011;48747;50.250;18.848;2023-05-19T00:18:01;13.78;;;8.03;;
37355;SDS011;48747;50.250;18.848;2023-05-19T00:20:22;20.12;;;8.35;;
37355;SDS011;48747;50.250;18.848;2023-05-19T00:22:40;16.07;;;10.43;;
37355;SDS011;48747;50.250;18.848;2023-05-19T00:24:53;15.08;;;8.68;;
37355;SDS011;48747;50.250;18.848;2023-05-19T00:27:02;14.83;;;9.53;;
37355;SDS011;48747;50.250;18.848;2023-05-19T00:29:08;19.45;;;9.83;;
37355;SDS011;48747;50.250;18.848;2023-05-19T00:31:18;15.78;;;8.73;;
37355;SDS011;48747;50.250;18.848;2023-05-19T00:35:43;15.35;;;9.13;;
37355;SDS011;48747;50.250;18.848;2023-05-19T00:39:50;22.75;;;9.90;;
37355;SDS011;48747;50.250;18.848;2023-05-19T00:50:48;21.80;;;10.72;;
37355;SDS011;48747;50.250;18.848;2023-05-19T00:55:11;18.70;;;10.18;;
37355;SDS011;48747;50.250;18.848;2023-05-19T00:57:17;16.48;;;9.40;;
37355;SDS011;48747;50.250;18.848;2023-05-19T01:01:40;17.52;;;8.83;;
37355;SDS011;48747;50.250;18.848;2023-05-19T01:04:00;16.15;;;9.35;;
37355;SDS011;48747;50.250;18.848;2023-05-19T01:05:57;15.93;;;10.10;;
37355;SDS011;48747;50.250;18.848;2023-05-19T01:07:58;20.00;;;11.57;;
37355;SDS011;48747;50.250;18.848;2023-05-19T01:12:21;22.20;;;13.08;;
37355;SDS011;48747;50.250;18.848;2023-05-19T01:16:39;19.75;;;11.73;;
37355;SDS011;48747;50.250;18.848;2023-05-19T01:26:15;21.93;;;12.60;;
37355;SDS011;48747;50.250;18.848;2023-05-19T01:28:47;21.75;;;11.20;;
37355;SDS011;48747;50.250;18.848;2023-05-19T01:35:15;16.97;;;10.08;;
37355;SDS011;48747;50.250;18.848;2023-05-19T01:37:20;13.95;;;8.95;;
37355;SDS011;48747;50.250;18.848;2023-05-19T01:39:40;17.12;;;9.58;;
37355;SDS011;48747;50.250;18.848;2023-05-19T01:43:52;15.00;;;8.55;;
37355;SDS011;48747;50.250;18.848;2023-05-19T01:50:24;14.93;;;8.28;;
37355;SDS011;48747;50.250;18.848;2023-05-19T01:52:38;13.03;;;7.60;;
37355;SDS011;48747;50.250;18.848;2023-05-19T01:54:45;15.40;;;8.23;;
37355;SDS011;48747;50.250;18.848;2023-05-19T02:02:33;16.17;;;8.28;;
37355;SDS011;48747;50.250;18.848;2023-05-19T02:14:24;18.92;;;9.88;;
37355;SDS011;48747;50.250;18.848;2023-05-19T02:18:46;16.12;;;10.38;;
37355;SDS011;48747;50.250;18.848;2023-05-19T02:27:50;12.70;;;8.20;;
37355;SDS011;48747;50.250;18.848;2023-05-19T02:29:46;15.10;;;9.70;;
37355;SDS011;48747;50.250;18.848;2023-05-19T02:34:13;13.28;;;8.60;;
37355;SDS011;48747;50.250;18.848;2023-05-19T02:38:41;11.85;;;8.20;;
37355;SDS011;48747;50.250;18.848;2023-05-19T02:43:01;13.13;;;7.55;;
37355;SDS011;48747;50.250;18.848;2023-05-19T02:45:09;15.65;;;7.97;;
37355;SDS011;48747;50.250;18.848;2023-05-19T02:53:42;11.88;;;7.67;;
37355;SDS011;48747;50.250;18.848;2023-05-19T02:56:05;10.08;;;6.72;;
37355;SDS011;48747;50.250;18.848;2023-05-19T03:00:12;13.75;;;7.50;;
37355;SDS011;48747;50.250;18.848;2023-05-19T03:02:20;12.55;;;7.42;;
37355;SDS011;48747;50.250;18.848;2023-05-19T03:04:44;12.98;;;8.08;;
37355;SDS011;48747;50.250;18.848;2023-05-19T03:06:45;20.12;;;10.60;;
37355;SDS011;48747;50.250;18.848;2023-05-19T03:09:12;15.00;;;11.08;;
37355;SDS011;48747;50.250;18.848;2023-05-19T03:10:59;14.80;;;9.08;;
37355;SDS011;48747;50.250;18.848;2023-05-19T03:13:04;13.43;;;7.25;;
37355;SDS011;48747;50.250;18.848;2023-05-19T03:15:20;18.77;;;12.33;;
37355;SDS011;48747;50.250;18.848;2023-05-19T03:17:23;18.52;;;11.18;;
37355;SDS011;48747;50.250;18.848;2023-05-19T03:19:32;12.68;;;7.90;;
37355;SDS011;48747;50.250;18.848;2023-05-19T03:23:46;14.43;;;9.30;;
37355;SDS011;48747;50.250;18.848;2023-05-19T03:25:53;20.27;;;13.08;;
37355;SDS011;48747;50.250;18.848;2023-05-19T03:30:10;16.93;;;12.73;;
37355;SDS011;48747;50.250;18.848;2023-05-19T03:34:40;19.85;;;12.07;;
37355;SDS011;48747;50.250;18.848;2023-05-19T03:36:55;17.77;;;11.38;;
37355;SDS011;48747;50.250;18.848;2023-05-19T03:41:01;17.10;;;10.50;;
37355;SDS011;48747;50.250;18.848;2023-05-19T03:45:10;18.32;;;10.60;;
37355;SDS011;48747;50.250;18.848;2023-05-19T03:47:22;18.80;;;10.58;;
37355;SDS011;48747;50.250;18.848;2023-05-19T03:51:43;17.87;;;10.03;;
37355;SDS011;48747;50.250;18.848;2023-05-19T03:53:55;20.48;;;8.90;;
37355;SDS011;48747;50.250;18.848;2023-05-19T03:58:16;16.73;;;10.70;;
37355;SDS011;48747;50.250;18.848;2023-05-19T04:00:27;18.82;;;10.63;;
37355;SDS011;48747;50.250;18.848;2023-05-19T04:02:39;17.27;;;10.78;;
37355;SDS011;48747;50.250;18.848;2023-05-19T04:04:45;19.00;;;11.55;;
37355;SDS011;48747;50.250;18.848;2023-05-19T04:06:52;20.52;;;12.05;;
37355;SDS011;48747;50.250;18.848;2023-05-19T04:09:01;15.78;;;9.88;;
37355;SDS011;48747;50.250;18.848;2023-05-19T04:11:09;17.32;;;11.30;;
37355;SDS011;48747;50.250;18.848;2023-05-19T04:13:26;20.43;;;8.93;;
37355;SDS011;48747;50.250;18.848;2023-05-19T04:15:34;20.97;;;10.53;;
37355;SDS011;48747;50.250;18.848;2023-05-19T04:17:48;18.35;;;11.10;;
37355;SDS011;48747;50.250;18.848;2023-05-19T04:20:00;12.13;;;8.08;;
37355;SDS011;48747;50.250;18.848;2023-05-19T04:22:26;13.22;;;8.05;;
37355;SDS011;48747;50.250;18.848;2023-05-19T04:26:33;14.53;;;8.65;;
37355;SDS011;48747;50.250;18.848;2023-05-19T04:33:07;17.45;;;10.13;;
37355;SDS011;48747;50.250;18.848;2023-05-19T04:35:09;14.60;;;8.45;;
37355;SDS011;48747;50.250;18.848;2023-05-19T04:37:23;16.48;;;10.90;;
37355;SDS011;48747;50.250;18.848;2023-05-19T04:46:04;19.27;;;10.58;;
37355;SDS011;48747;50.250;18.848;2023-05-19T04:48:14;17.40;;;10.63;;
37355;SDS011;48747;50.250;18.848;2023-05-19T04:52:50;21.05;;;14.73;;
37355;SDS011;48747;50.250;18.848;2023-05-19T04:56:56;14.73;;;9.80;;
37355;SDS011;48747;50.250;18.848;2023-05-19T04:59:22;15.40;;;9.53;;
37355;SDS011;48747;50.250;18.848;2023-05-19T05:01:31;14.80;;;9.20;;
37355;SDS011;48747;50.250;18.848;2023-05-19T05:03:34;14.33;;;9.60;;
37355;SDS011;48747;50.250;18.848;2023-05-19T05:05:45;13.75;;;8.88;;
37355;SDS011;48747;50.250;18.848;2023-05-19T05:07:43;16.70;;;8.60;;
37355;SDS011;48747;50.250;18.848;2023-05-19T05:09:49;16.10;;;8.10;;
37355;SDS011;48747;50.250;18.848;2023-05-19T05:12:01;17.42;;;10.80;;
37355;SDS011;48747;50.250;18.848;2023-05-19T05:14:06;20.08;;;10.93;;
37355;SDS011;48747;50.250;18.848;2023-05-19T05:16:11;16.57;;;9.18;;
37355;SDS011;48747;50.250;18.848;2023-05-19T05:18:19;16.80;;;10.80;;
37355;SDS011;48747;50.250;18.848;2023-05-19T05:20:22;20.25;;;11.18;;
37355;SDS011;48747;50.250;18.848;2023-05-19T05:24:38;16.77;;;10.30;;
37355;SDS011;48747;50.250;18.848;2023-05-19T05:26:41;19.05;;;10.93;;
37355;SDS011;48747;50.250;18.848;2023-05-19T05:28:44;20.60;;;12.03;;
37355;SDS011;48747;50.250;18.848;2023-05-19T05:30:54;22.80;;;13.80;;
37355;SDS011;48747;50.250;18.848;2023-05-19T05:32:58;23.90;;;15.55;;
37355;SDS011;48747;50.250;18.848;2023-05-19T05:35:02;23.22;;;12.80;;
37355;SDS011;48747;50.250;18.848;2023-05-19T05:37:07;24.45;;;14.75;;
37355;SDS011;48747;50.250;18.848;2023-05-19T05:39:11;25.60;;;16.45;;
37355;SDS011;48747;50.250;18.848;2023-05-19T05:41:16;25.43;;;13.43;;
37355;SDS011;48747;50.250;18.848;2023-05-19T05:43:19;22.40;;;14.00;;
37355;SDS011;48747;50.250;18.848;2023-05-19T05:45:25;23.42;;;14.80;;
37355;SDS011;48747;50.250;18.848;2023-05-19T05:47:28;24.72;;;14.07;;
37355;SDS011;48747;50.250;18.848;2023-05-19T05:49:34;22.02;;;14.03;;
37355;SDS011;48747;50.250;18.848;2023-05-19T05:51:44;27.30;;;14.03;;
37355;SDS011;48747;50.250;18.848;2023-05-19T05:53:43;26.70;;;13.90;;
37355;SDS011;48747;50.250;18.848;2023-05-19T05:55:49;23.52;;;14.13;;
37355;SDS011;48747;50.250;18.848;2023-05-19T05:57:53;24.98;;;14.38;;
37355;SDS011;48747;50.250;18.848;2023-05-19T05:59:58;22.73;;;14.20;;
37355;SDS011;48747;50.250;18.848;2023-05-19T06:02:07;27.75;;;14.70;;
37355;SDS011;48747;50.250;18.848;2023-05-19T06:04:07;25.02;;;15.45;;
37355;SDS011;48747;50.250;18.848;2023-05-19T06:06:12;29.72;;;16.07;;
37355;SDS011;48747;50.250;18.848;2023-05-19T06:08:15;24.72;;;16.57;;
37355;SDS011;48747;50.250;18.848;2023-05-19T06:10:18;32.88;;;16.45;;
37355;SDS011;48747;50.250;18.848;2023-05-19T06:12:23;27.05;;;16.25;;
37355;SDS011;48747;50.250;18.848;2023-05-19T06:14:27;26.15;;;15.20;;
37355;SDS011;48747;50.250;18.848;2023-05-19T06:16:30;26.82;;;16.60;;
37355;SDS011;48747;50.250;18.848;2023-05-19T06:18:33;27.22;;;16.52;;
37355;SDS011;48747;50.250;18.848;2023-05-19T06:20:36;25.62;;;15.35;;
37355;SDS011;48747;50.250;18.848;2023-05-19T06:22:39;24.67;;;13.90;;
37355;SDS011;48747;50.250;18.848;2023-05-19T06:24:44;23.25;;;13.83;;
37355;SDS011;48747;50.250;18.848;2023-05-19T06:26:50;28.05;;;19.35;;
37355;SDS011;48747;50.250;18.848;2023-05-19T06:28:53;30.48;;;19.07;;
37355;SDS011;48747;50.250;18.848;2023-05-19T06:30:58;22.82;;;13.80;;
37355;SDS011;48747;50.250;18.848;2023-05-19T06:33:01;20.48;;;13.20;;
37355;SDS011;48747;50.250;18.848;2023-05-19T06:35:04;24.23;;;13.93;;
37355;SDS011;48747;50.250;18.848;2023-05-19T06:37:08;20.23;;;12.13;;
37355;SDS011;48747;50.250;18.848;2023-05-19T06:39:11;20.88;;;12.75;;
37355;SDS011;48747;50.250;18.848;2023-05-19T06:41:14;25.52;;;13.55;;
37355;SDS011;48747;50.250;18.848;2023-05-19T06:43:17;24.23;;;13.45;;
37355;SDS011;48747;50.250;18.848;2023-05-19T06:47:47;23.80;;;14.93;;
37355;SDS011;48747;50.250;18.848;2023-05-19T06:49:51;19.15;;;12.63;;
37355;SDS011;48747;50.250;18.848;2023-05-19T06:51:57;19.30;;;12.85;;
37355;SDS011;48747;50.250;18.848;2023-05-19T06:54:00;19.05;;;12.40;;
37355;SDS011;48747;50.250;18.848;2023-05-19T06:56:03;20.80;;;12.65;;
37355;SDS011;48747;50.250;18.848;2023-05-19T06:58:07;19.92;;;12.23;;
37355;SDS011;48747;50.250;18.848;2023-05-19T07:00:10;21.77;;;11.35;;
37355;SDS011;48747;50.250;18.848;2023-05-19T07:02:14;20.27;;;11.55;;
37355;SDS011;48747;50.250;18.848;2023-05-19T07:04:17;21.20;;;12.53;;
37355;SDS011;48747;50.250;18.848;2023-05-19T07:06:22;16.97;;;11.30;;
37355;SDS011;48747;50.250;18.848;2023-05-19T07:08:27;20.40;;;11.10;;
37355;SDS011;48747;50.250;18.848;2023-05-19T07:10:29;17.20;;;10.28;;
37355;SDS011;48747;50.250;18.848;2023-05-19T07:12:34;17.15;;;11.35;;
37355;SDS011;48747;50.250;18.848;2023-05-19T07:14:39;21.95;;;12.85;;
37355;SDS011;48747;50.250;18.848;2023-05-19T07:16:42;19.00;;;11.38;;
37355;SDS011;48747;50.250;18.848;2023-05-19T07:18:49;20.35;;;11.57;;
37355;SDS011;48747;50.250;18.848;2023-05-19T07:20:52;17.67;;;12.13;;
37355;SDS011;48747;50.250;18.848;2023-05-19T07:22:57;20.02;;;13.00;;
37355;SDS011;48747;50.250;18.848;2023-05-19T07:25:02;23.20;;;11.73;;
37355;SDS011;48747;50.250;18.848;2023-05-19T07:27:06;18.15;;;12.45;;
37355;SDS011;48747;50.250;18.848;2023-05-19T07:29:10;21.77;;;12.73;;
37355;SDS011;48747;50.250;18.848;2023-05-19T07:31:16;22.90;;;12.68;;
37355;SDS011;48747;50.250;18.848;2023-05-19T07:33:19;19.73;;;12.60;;
37355;SDS011;48747;50.250;18.848;2023-05-19T07:35:24;18.27;;;11.35;;
37355;SDS011;48747;50.250;18.848;2023-05-19T07:37:29;19.60;;;12.78;;
37355;SDS011;48747;50.250;18.848;2023-05-19T07:39:33;23.35;;;12.60;;
37355;SDS011;48747;50.250;18.848;2023-05-19T07:41:37;22.30;;;12.68;;
37355;SDS011;48747;50.250;18.848;2023-05-19T07:43:41;24.37;;;13.45;;
37355;SDS011;48747;50.250;18.848;2023-05-19T07:45:45;21.27;;;13.00;;
37355;SDS011;48747;50.250;18.848;2023-05-19T07:47:48;27.75;;;12.23;;
37355;SDS011;48747;50.250;18.848;2023-05-19T07:49:51;19.23;;;12.20;;
37355;SDS011;48747;50.250;18.848;2023-05-19T07:51:54;24.70;;;14.00;;
37355;SDS011;48747;50.250;18.848;2023-05-19T07:54:00;19.62;;;12.30;;
37355;SDS011;48747;50.250;18.848;2023-05-19T07:56:05;25.48;;;13.28;;
37355;SDS011;48747;50.250;18.848;2023-05-19T07:58:10;21.93;;;13.65;;
37355;SDS011;48747;50.250;18.848;2023-05-19T08:00:13;21.45;;;13.22;;
37355;SDS011;48747;50.250;18.848;2023-05-19T08:02:18;21.27;;;12.33;;
37355;SDS011;48747;50.250;18.848;2023-05-19T08:04:21;24.02;;;13.88;;
37355;SDS011;48747;50.250;18.848;2023-05-19T08:06:24;24.92;;;13.95;;
37355;SDS011;48747;50.250;18.848;2023-05-19T08:08:28;23.05;;;13.60;;
37355;SDS011;48747;50.250;18.848;2023-05-19T08:10:33;26.40;;;13.95;;
37355;SDS011;48747;50.250;18.848;2023-05-19T08:12:36;21.52;;;12.95;;
37355;SDS011;48747;50.250;18.848;2023-05-19T08:14:39;21.93;;;13.05;;
37355;SDS011;48747;50.250;18.848;2023-05-19T08:16:42;21.10;;;12.95;;
37355;SDS011;48747;50.250;18.848;2023-05-19T08:18:46;22.50;;;13.08;;
37355;SDS011;48747;50.250;18.848;2023-05-19T08:20:52;20.37;;;13.22;;
37355;SDS011;48747;50.250;18.848;2023-05-19T08:22:57;22.85;;;12.85;;
37355;SDS011;48747;50.250;18.848;2023-05-19T08:25:06;21.75;;;12.75;;
37355;SDS011;48747;50.250;18.848;2023-05-19T08:31:58;20.37;;;12.65;;
37355;SDS011;48747;50.250;18.848;2023-05-19T08:34:05;17.62;;;11.22;;
37355;SDS011;48747;50.250;18.848;2023-05-19T08:41:54;19.50;;;12.10;;
37355;SDS011;48747;50.250;18.848;2023-05-19T08:44:01;21.70;;;12.20;;
37355;SDS011;48747;50.250;18.848;2023-05-19T08:46:10;16.17;;;10.20;;
37355;SDS011;48747;50.250;18.848;2023-05-19T08:55:08;18.48;;;10.25;;
37355;SDS011;48747;50.250;18.848;2023-05-19T08:57:31;15.90;;;10.08;;
37355;SDS011;48747;50.250;18.848;2023-05-19T08:59:42;18.98;;;10.45;;
37355;SDS011;48747;50.250;18.848;2023-05-19T09:01:50;17.98;;;10.63;;
37355;SDS011;48747;50.250;18.848;2023-05-19T09:03:53;21.25;;;10.60;;
37355;SDS011;48747;50.250;18.848;2023-05-19T09:05:58;18.65;;;10.38;;
37355;SDS011;48747;50.250;18.848;2023-05-19T09:08:07;15.93;;;9.90;;
37355;SDS011;48747;50.250;18.848;2023-05-19T09:10:22;19.57;;;10.82;;
37355;SDS011;48747;50.250;18.848;2023-05-19T09:12:21;15.55;;;10.20;;
37355;SDS011;48747;50.250;18.848;2023-05-19T09:14:30;23.35;;;16.90;;
37355;SDS011;48747;50.250;18.848;2023-05-19T09:16:32;18.92;;;10.75;;
37355;SDS011;48747;50.250;18.848;2023-05-19T09:21:32;12.07;;;8.68;;
37355;SDS011;48747;50.250;18.848;2023-05-19T09:23:40;19.75;;;9.98;;
37355;SDS011;48747;50.250;18.848;2023-05-19T09:25:47;17.32;;;10.40;;
37355;SDS011;48747;50.250;18.848;2023-05-19T09:27:52;17.07;;;9.68;;
37355;SDS011;48747;50.250;18.848;2023-05-19T09:29:57;14.33;;;9.78;;
37355;SDS011;48747;50.250;18.848;2023-05-19T09:32:02;18.05;;;10.15;;
37355;SDS011;48747;50.250;18.848;2023-05-19T09:34:10;19.17;;;11.35;;
37355;SDS011;48747;50.250;18.848;2023-05-19T09:38:44;17.82;;;11.10;;
37355;SDS011;48747;50.250;18.848;2023-05-19T09:40:49;18.25;;;11.75;;
37355;SDS011;48747;50.250;18.848;2023-05-19T09:52:39;20.80;;;11.30;;
37355;SDS011;48747;50.250;18.848;2023-05-19T09:54:32;17.95;;;10.68;;
37355;SDS011;48747;50.250;18.848;2023-05-19T10:11:47;15.72;;;10.58;;
37355;SDS011;48747;50.250;18.848;2023-05-19T11:24:44;16.62;;;9.65;;
37355;SDS011;48747;50.250;18.848;2023-05-19T11:29:34;12.68;;;9.63;;
37355;SDS011;48747;50.250;18.848;2023-05-19T11:31:24;14.78;;;10.00;;
37355;SDS011;48747;50.250;18.848;2023-05-19T11:33:36;12.95;;;10.20;;
37355;SDS011;48747;50.250;18.848;2023-05-19T11:35:50;14.30;;;10.70;;
37355;SDS011;48747;50.250;18.848;2023-05-19T11:37:57;14.50;;;10.78;;
37355;SDS011;48747;50.250;18.848;2023-05-19T11:40:05;16.00;;;11.35;;
37355;SDS011;48747;50.250;18.848;2023-05-19T11:42:14;14.47;;;10.90;;
37355;SDS011;48747;50.250;18.848;2023-05-19T11:44:26;15.30;;;11.33;;
37355;SDS011;48747;50.250;18.848;2023-05-19T11:46:30;16.95;;;10.68;;
37355;SDS011;48747;50.250;18.848;2023-05-19T11:48:36;15.80;;;11.70;;
37355;SDS011;48747;50.250;18.848;2023-05-19T11:50:42;17.20;;;11.12;;
37355;SDS011;48747;50.250;18.848;2023-05-19T11:52:47;16.00;;;11.12;;
37355;SDS011;48747;50.250;18.848;2023-05-19T11:54:53;19.87;;;12.10;;
37355;SDS011;48747;50.250;18.848;2023-05-19T11:57:01;13.90;;;10.60;;
37355;SDS011;48747;50.250;18.848;2023-05-19T11:59:06;14.07;;;10.93;;
37355;SDS011;48747;50.250;18.848;2023-05-19T12:01:11;14.10;;;10.78;;
37355;SDS011;48747;50.250;18.848;2023-05-19T12:03:19;12.68;;;10.30;;
37355;SDS011;48747;50.250;18.848;2023-05-19T12:05:36;13.20;;;10.80;;
37355;SDS011;48747;50.250;18.848;2023-05-19T12:07:47;15.30;;;10.05;;
37355;SDS011;48747;50.250;18.848;2023-05-19T12:09:52;15.38;;;10.60;;
37355;SDS011;48747;50.250;18.848;2023-05-19T12:11:59;15.00;;;10.88;;
37355;SDS011;48747;50.250;18.848;2023-05-19T12:14:04;14.87;;;11.57;;
37355;SDS011;48747;50.250;18.848;2023-05-19T12:16:08;22.32;;;13.08;;
37355;SDS011;48747;50.250;18.848;2023-05-19T12:18:14;20.55;;;13.20;;
37355;SDS011;48747;50.250;18.848;2023-05-19T12:24:46;17.98;;;12.93;;
37355;SDS011;48747;50.250;18.848;2023-05-19T12:29:14;17.07;;;11.55;;
37355;SDS011;48747;50.250;18.848;2023-05-19T12:34:11;20.30;;;12.03;;
37355;SDS011;48747;50.250;18.848;2023-05-19T12:36:32;16.05;;;11.65;;
37355;SDS011;48747;50.250;18.848;2023-05-19T12:38:52;16.67;;;11.80;;
37355;SDS011;48747;50.250;18.848;2023-05-19T12:43:26;17.75;;;12.20;;
37355;SDS011;48747;50.250;18.848;2023-05-19T12:48:01;15.45;;;10.95;;
37355;SDS011;48747;50.250;18.848;2023-05-19T12:50:09;16.17;;;11.57;;
37355;SDS011;48747;50.250;18.848;2023-05-19T12:52:14;17.48;;;12.65;;
37355;SDS011;48747;50.250;18.848;2023-05-19T12:54:25;20.05;;;12.80;;
37355;SDS011;48747;50.250;18.848;2023-05-19T13:03:22;16.62;;;12.78;;
37355;SDS011;48747;50.250;18.848;2023-05-19T13:05:32;16.12;;;12.30;;
37355;SDS011;48747;50.250;18.848;2023-05-19T13:21:59;17.35;;;11.03;;
37355;SDS011;48747;50.250;18.848;2023-05-19T13:24:03;16.67;;;11.22;;
37355;SDS011;48747;50.250;18.848;2023-05-19T13:26:07;22.05;;;12.85;;
37355;SDS011;48747;50.250;18.848;2023-05-19T13:28:11;15.23;;;11.80;;
37355;SDS011;48747;50.250;18.848;2023-05-19T13:30:15;14.25;;;11.33;;
37355;SDS011;48747;50.250;18.848;2023-05-19T13:32:21;15.15;;;11.18;;
37355;SDS011;48747;50.250;18.848;2023-05-19T13:34:24;14.40;;;11.25;;
37355;SDS011;48747;50.250;18.848;2023-05-19T13:36:28;13.55;;;11.03;;
37355;SDS011;48747;50.250;18.848;2023-05-19T13:38:32;15.08;;;11.60;;
37355;SDS011;48747;50.250;18.848;2023-05-19T13:40:36;15.75;;;11.85;;
37355;SDS011;48747;50.250;18.848;2023-05-19T13:42:39;17.35;;;11.90;;
37355;SDS011;48747;50.250;18.848;2023-05-19T13:44:52;14.05;;;11.38;;
37355;SDS011;48747;50.250;18.848;2023-05-19T13:46:49;17.15;;;12.10;;
37355;SDS011;48747;50.250;18.848;2023-05-19T13:48:55;13.68;;;11.88;;
37355;SDS011;48747;50.250;18.848;2023-05-19T13:51:00;14.23;;;12.30;;
37355;SDS011;48747;50.250;18.848;2023-05-19T13:53:05;14.60;;;12.15;;
37355;SDS011;48747;50.250;18.848;2023-05-19T13:55:08;13.98;;;10.90;;
37355;SDS011;48747;50.250;18.848;2023-05-19T13:57:11;12.25;;;10.45;;
37355;SDS011;48747;50.250;18.848;2023-05-19T13:59:16;14.53;;;11.75;;
37355;SDS011;48747;50.250;18.848;2023-05-19T14:01:21;15.68;;;11.75;;
37355;SDS011;48747;50.250;18.848;2023-05-19T14:03:26;12.85;;;10.98;;
37355;SDS011;48747;50.250;18.848;2023-05-19T14:05:30;14.28;;;11.90;;
37355;SDS011;48747;50.250;18.848;2023-05-19T14:07:35;16.15;;;11.90;;
37355;SDS011;48747;50.250;18.848;2023-05-19T14:09:48;16.65;;;12.33;;
37355;SDS011;48747;50.250;18.848;2023-05-19T14:11:48;15.35;;;12.18;;
37355;SDS011;48747;50.250;18.848;2023-05-19T14:13:52;19.57;;;13.53;;
37355;SDS011;48747;50.250;18.848;2023-05-19T14:15:56;16.75;;;12.50;;
37355;SDS011;48747;50.250;18.848;2023-05-19T14:18:01;15.23;;;11.63;;
37355;SDS011;48747;50.250;18.848;2023-05-19T14:20:06;18.00;;;12.18;;
37355;SDS011;48747;50.250;18.848;2023-05-19T14:22:09;15.83;;;12.33;;
37355;SDS011;48747;50.250;18.848;2023-05-19T14:24:13;17.15;;;13.00;;
37355;SDS011;48747;50.250;18.848;2023-05-19T14:26:16;21.55;;;13.58;;
37355;SDS011;48747;50.250;18.848;2023-05-19T14:28:20;15.75;;;11.93;;
37355;SDS011;48747;50.250;18.848;2023-05-19T14:30:23;14.58;;;11.65;;
37355;SDS011;48747;50.250;18.848;2023-05-19T14:32:27;13.13;;;10.90;;
37355;SDS011;48747;50.250;18.848;2023-05-19T14:34:31;16.87;;;13.35;;
37355;SDS011;48747;50.250;18.848;2023-05-19T14:36:35;12.85;;;11.20;;
37355;SDS011;48747;50.250;18.848;2023-05-19T14:38:38;15.58;;;11.88;;
37355;SDS011;48747;50.250;18.848;2023-05-19T14:40:41;13.83;;;12.23;;
37355;SDS011;48747;50.250;18.848;2023-05-19T14:42:45;14.98;;;11.48;;
37355;SDS011;48747;50.250;18.848;2023-05-19T14:44:48;16.10;;;12.85;;
37355;SDS011;48747;50.250;18.848;2023-05-19T14:46:51;17.80;;;12.60;;
37355;SDS011;48747;50.250;18.848;2023-05-19T14:48:57;17.52;;;13.70;;
37355;SDS011;48747;50.250;18.848;2023-05-19T14:50:59;17.02;;;12.15;;
37355;SDS011;48747;50.250;18.848;2023-05-19T14:53:02;17.70;;;12.28;;
37355;SDS011;48747;50.250;18.848;2023-05-19T14:55:05;44.45;;;17.25;;
37355;SDS011;48747;50.250;18.848;2023-05-19T14:57:10;21.50;;;13.22;;
37355;SDS011;48747;50.250;18.848;2023-05-19T14:59:13;18.30;;;12.33;;
37355;SDS011;48747;50.250;18.848;2023-05-19T15:01:16;18.77;;;12.82;;
37355;SDS011;48747;50.250;18.848;2023-05-19T15:03:21;17.30;;;13.45;;
37355;SDS011;48747;50.250;18.848;2023-05-19T15:05:25;17.37;;;13.83;;
37355;SDS011;48747;50.250;18.848;2023-05-19T15:07:28;18.02;;;15.00;;
37355;SDS011;48747;50.250;18.848;2023-05-19T15:09:31;21.70;;;15.38;;
37355;SDS011;48747;50.250;18.848;2023-05-19T15:11:34;22.70;;;17.75;;
37355;SDS011;48747;50.250;18.848;2023-05-19T15:13:37;21.30;;;16.70;;
37355;SDS011;48747;50.250;18.848;2023-05-19T15:15:40;25.72;;;18.75;;
37355;SDS011;48747;50.250;18.848;2023-05-19T15:17:43;25.55;;;18.62;;
37355;SDS011;48747;50.250;18.848;2023-05-19T15:19:48;23.15;;;16.95;;
37355;SDS011;48747;50.250;18.848;2023-05-19T15:21:51;25.57;;;18.07;;
37355;SDS011;48747;50.250;18.848;2023-05-19T15:23:54;24.52;;;17.87;;
37355;SDS011;48747;50.250;18.848;2023-05-19T15:25:57;26.97;;;18.00;;
37355;SDS011;48747;50.250;18.848;2023-05-19T15:28:00;25.17;;;17.30;;
37355;SDS011;48747;50.250;18.848;2023-05-19T15:30:04;27.40;;;18.77;;
37355;SDS011;48747;50.250;18.848;2023-05-19T15:32:07;27.75;;;18.55;;
37355;SDS011;48747;50.250;18.848;2023-05-19T15:34:11;28.83;;;19.75;;
37355;SDS011;48747;50.250;18.848;2023-05-19T15:36:14;30.32;;;18.80;;
37355;SDS011;48747;50.250;18.848;2023-05-19T15:38:17;30.95;;;21.80;;
37355;SDS011;48747;50.250;18.848;2023-05-19T15:40:21;32.05;;;20.45;;
37355;SDS011;48747;50.250;18.848;2023-05-19T15:42:26;38.58;;;22.42;;
37355;SDS011;48747;50.250;18.848;2023-05-19T15:44:29;51.85;;;26.62;;
37355;SDS011;48747;50.250;18.848;2023-05-19T15:46:32;57.80;;;29.35;;
37355;SDS011;48747;50.250;18.848;2023-05-19T15:48:37;39.98;;;23.98;;
37355;SDS011;48747;50.250;18.848;2023-05-19T15:50:40;42.48;;;27.73;;
37355;SDS011;48747;50.250;18.848;2023-05-19T15:52:43;35.15;;;22.90;;
37355;SDS011;48747;50.250;18.848;2023-05-19T15:54:46;39.65;;;27.85;;
37355;SDS011;48747;50.250;18.848;2023-05-19T15:56:51;35.92;;;24.65;;
37355;SDS011;48747;50.250;18.848;2023-05-19T15:58:54;31.48;;;22.15;;
37355;SDS011;48747;50.250;18.848;2023-05-19T16:00:57;40.03;;;25.12;;
37355;SDS011;48747;50.250;18.848;2023-05-19T16:03:00;32.05;;;22.55;;
37355;SDS011;48747;50.250;18.848;2023-05-19T16:05:04;35.03;;;23.07;;
37355;SDS011;48747;50.250;18.848;2023-05-19T16:07:07;40.30;;;24.50;;
37355;SDS011;48747;50.250;18.848;2023-05-19T16:09:12;35.85;;;23.22;;
37355;SDS011;48747;50.250;18.848;2023-05-19T16:11:15;36.77;;;24.55;;
37355;SDS011;48747;50.250;18.848;2023-05-19T16:13:18;33.02;;;23.50;;
37355;SDS011;48747;50.250;18.848;2023-05-19T16:15:23;35.15;;;23.98;;
37355;SDS011;48747;50.250;18.848;2023-05-19T16:17:26;32.67;;;22.02;;
37355;SDS011;48747;50.250;18.848;2023-05-19T16:19:29;31.60;;;22.85;;
37355;SDS011;48747;50.250;18.848;2023-05-19T16:21:34;34.25;;;23.45;;
37355;SDS011;48747;50.250;18.848;2023-05-19T16:23:37;32.75;;;21.40;;
37355;SDS011;48747;50.250;18.848;2023-05-19T16:25:41;26.48;;;20.23;;
37355;SDS011;48747;50.250;18.848;2023-05-19T16:27:44;31.15;;;23.52;;
37355;SDS011;48747;50.250;18.848;2023-05-19T16:29:48;30.97;;;21.20;;
37355;SDS011;48747;50.250;18.848;2023-05-19T16:31:51;32.25;;;24.90;;
37355;SDS011;48747;50.250;18.848;2023-05-19T16:33:54;36.73;;;26.48;;
37355;SDS011;48747;50.250;18.848;2023-05-19T16:35:57;30.52;;;21.50;;
37355;SDS011;48747;50.250;18.848;2023-05-19T16:38:00;34.95;;;24.55;;
37355;SDS011;48747;50.250;18.848;2023-05-19T16:40:05;36.05;;;26.07;;
37355;SDS011;48747;50.250;18.848;2023-05-19T16:42:08;43.20;;;27.10;;
37355;SDS011;48747;50.250;18.848;2023-05-19T16:44:12;32.00;;;21.05;;
37355;SDS011;48747;50.250;18.848;2023-05-19T16:46:15;32.17;;;21.23;;
37355;SDS011;48747;50.250;18.848;2023-05-19T16:48:19;29.32;;;19.67;;